Middelkerke, Belgium
Current Conditions -  °F | °C
As of 9:20 AM on Friday 21 Nov 2014 (Local Time) from EBOS Reporting Station
Haze Haze  
Wind Chill: 32°   Ceiling: 300
Heat Index: 37°   Visibility: 1mi
Dew Point: 37°   Wind: 7mph
Humidity: 100%   Direction: 100°E
Pressure: 30.15"   Gusts: NA
Location:  51.19°N, 2.82°E
Report Text: EBOS 210820Z 10006KT 1600 BR SCT002 BKN003 03/03 Q1021 TEMPO TL0930 1200 BR BKN002
Loading
Personal Weather Stations






























Interactive Weather Map New forecast layout! Learn more

10-Day Weather Forecast

Advertisements
Track Severe Weather on mobile